Latest Weather Observations for Ferny Creek

IDV60801

Issued at 3:02 pm EST Wednesday 28 September 2016 (issued every 30 minutes, with the page automatically refreshed every 10 minutes)

About weather observations | Map of weather stations | Latest weather observations for VIC | Other Formats
Station Details ID: 086266 Name: FERNY CREEK Lat: -37.87 Lon: 145.35 Height: 512.9 m
Data from the previous 72 hours. | See also: Recent months at Ferny Creek
Date/Time
EST
Temp
°C
App
Temp
°C
Dew
Point
°C
Rel
Hum
%
Delta-T
°C
Wind Press
QNH
hPa
Press
MSL
hPa
Rain since
9am
mm
Dir  Spd
km/h
Gust
km/h
Spd
kts
Gust
kts
28/03:00pm 13.7 11.3 6.8 63 3.4 N 9 19 5 10 1004.7 1004.8 0.0
28/02:30pm 13.8 10.7 7.3 65 3.3 NE 13 28 7 15 1005.2 1005.3 0.0
28/02:00pm 13.7 10.5 7.0 64 3.4 NE 13 24 7 13 1006.2 1006.4 0.0
28/01:30pm 12.9 9.6 6.5 65 3.1 NE 13 28 7 15 1006.5 1006.6 0.0
28/01:00pm 12.9 10.0 6.3 64 3.2 NNE 11 26 6 14 1007.9 1008.1 0.0
28/12:30pm 12.3 8.7 5.2 62 3.4 NNE 13 28 7 15 1009.0 1009.2 0.0
28/12:00pm 12.1 9.5 5.9 66 3.0 N 9 24 5 13 1009.9 1010.1 0.0
28/11:30am 12.1 9.6 6.4 68 2.8 N 9 17 5 9 1010.5 1010.8 0.0
28/11:00am 13.1 11.1 7.3 68 2.9 NNW 7 17 4 9 1011.1 1011.3 0.0
28/10:30am 12.3 9.8 6.6 68 2.8 N 9 22 5 12 1011.5 1011.7 0.0
28/10:00am 11.6 9.2 5.3 65 3.0 N 7 17 4 9 1011.4 1011.6 0.0
28/09:30am 11.5 9.0 4.9 64 3.1 N 7 13 4 7 1011.7 1011.9 0.0
28/09:00am 11.2 9.0 5.3 67 2.8 N 6 15 3 8 1012.1 1012.4 3.4
28/08:30am 11.0 9.0 6.2 72 2.3 N 6 9 3 5 1012.3 1012.6 3.4
28/08:00am 10.2 8.1 5.8 74 2.1 N 6 9 3 5 1012.4 1012.7 3.4
28/07:30am 9.8 8.5 6.2 78 1.7 N 2 6 1 3 1012.7 1012.9 3.4
28/07:00am 8.4 7.4 5.5 82 1.3 CALM 0 0 0 0 1012.7 1012.9 3.4
28/06:30am 7.0 5.0 4.5 84 1.1 WNW 4 7 2 4 1012.7 1012.9 3.4
28/06:00am 6.3 4.6 4.1 86 1.0 NNW 2 4 1 2 1012.4 1012.7 3.4
28/05:30am 6.5 4.5 4.3 86 1.0 NW 4 6 2 3 1012.3 1012.6 3.4
28/05:00am 6.6 5.0 4.4 86 1.0 NW 2 9 1 5 1012.3 1012.6 3.4
28/04:30am 6.7 5.1 4.5 86 1.0 NW 2 7 1 4 1012.3 1012.6 3.2
28/04:00am 6.8 4.9 5.0 88 0.8 NW 4 9 2 5 1012.3 1012.6 3.2
28/03:30am 6.3 5.1 4.6 89 0.8 CALM 0 4 0 2 1012.2 1012.5 3.2
28/03:00am 6.5 5.3 4.5 87 0.9 CALM 0 4 0 2 1012.2 1012.5 3.2
28/02:30am 6.9 5.3 4.7 86 1.0 NNW 2 6 1 3 1012.1 1012.4 3.2
28/02:00am 7.1 5.1 4.6 84 1.1 NW 4 7 2 4 1012.3 1012.6 3.2
28/01:30am 6.7 5.1 4.4 85 1.0 NW 2 6 1 3 1012.4 1012.7 3.2
28/01:00am 6.6 5.1 4.8 88 0.8 N 2 7 1 4 1012.5 1012.8 3.2
28/12:30am 6.6 4.6 4.6 87 0.9 NW 4 6 2 3 1012.7 1012.9 3.2
28/12:00am 6.1 4.8 3.9 86 1.0 CALM 0 2 0 1 1012.5 1012.8 3.2
 
Date/Time
EST
Temp
°C
App
Temp
°C
Dew
Point
°C
Rel
Hum
%
Delta-T
°C
Wind Press
QNH
hPa
Press
MSL
hPa
Rain since
9am
mm
Dir  Spd
km/h
Gust
km/h
Spd
kts
Gust
kts
27/11:30pm 6.4 5.1 4.1 85 1.0 CALM 0 0 0 0 1012.7 1012.9 3.2
27/11:00pm 6.7 5.6 5.0 89 0.8 CALM 0 0 0 0 1012.9 1013.1 3.2
27/10:30pm 6.2 4.8 5.3 94 0.4 NW 2 2 1 1 1013.1 1013.3 3.2
27/10:00pm 6.4 5.0 5.7 95 0.3 NW 2 4 1 2 1013.0 1013.2 3.2
27/09:30pm 6.5 5.6 5.9 96 0.3 CALM 0 4 0 2 1013.1 1013.3 3.2
27/09:00pm 6.6 5.3 6.0 96 0.3 NNW 2 4 1 2 1013.2 1013.4 3.2
27/08:30pm 6.6 5.7 6.0 96 0.3 CALM 0 0 0 0 1013.2 1013.4 3.2
27/08:00pm 6.5 5.5 5.8 95 0.3 CALM 0 0 0 0 1013.0 1013.2 3.0
27/07:30pm 6.6 5.7 5.9 95 0.3 CALM 0 0 0 0 1013.2 1013.4 3.0
27/07:00pm 6.3 5.3 5.4 94 0.4 CALM 0 0 0 0 1013.1 1013.3 3.0
27/06:30pm 6.8 5.8 5.7 93 0.5 CALM 0 0 0 0 1012.8 1013.0 3.0
27/06:00pm 7.3 6.0 6.1 92 0.6 WSW 2 4 1 2 1012.5 1012.8 3.0
27/05:30pm 8.3 7.2 7.1 92 0.6 WSW 2 7 1 4 1012.4 1012.7 3.0
27/05:00pm 8.3 7.3 7.5 95 0.4 WSW 2 4 1 2 1012.2 1012.5 3.0
27/04:30pm 8.2 6.5 7.6 96 0.3 SW 6 9 3 5 1011.9 1012.1 3.0
27/04:00pm 8.0 5.7 7.4 96 0.3 WSW 9 19 5 10 1011.7 1011.9 2.6
27/03:30pm 8.2 6.5 7.4 95 0.4 W 6 11 3 6 1011.5 1011.7 2.2
27/03:00pm 8.2 6.2 7.0 92 0.6 W 7 17 4 9 1011.4 1011.6 1.2
27/02:30pm 8.4 6.9 6.9 90 0.7 NW 4 9 2 5 1011.4 1011.6 0.2
27/02:00pm 9.3 7.4 6.6 83 1.3 NW 6 13 3 7 1011.4 1011.6 0.0
27/01:30pm 10.9 8.8 3.9 62 3.2 WSW 4 9 2 5 1011.3 1011.5 0.0
27/01:00pm 10.8 8.9 4.7 66 2.8 WSW 4 11 2 6 1011.3 1011.5 0.0
27/12:30pm 10.5 8.0 4.6 67 2.7 NW 7 15 4 8 1011.4 1011.6 0.0
27/12:00pm 10.5 8.0 3.8 63 3.1 WNW 6 17 3 9 1011.4 1011.6 0.0
27/11:30am 10.0 8.1 5.0 71 2.3 NW 4 13 2 7 1011.4 1011.6 0.0
27/11:00am 8.5 6.4 3.8 72 2.1 WNW 4 9 2 5 1011.4 1011.6 0.0
27/10:30am 9.1 6.2 4.7 74 2.0 NW 9 17 5 9 1011.2 1011.4 0.0
27/10:00am 8.0 5.8 5.1 82 1.3 WNW 6 9 3 5 1011.2 1011.4 0.0
27/09:30am 7.4 4.8 4.4 81 1.3 NW 7 15 4 8 1011.0 1011.2 0.0
27/09:00am 6.6 4.1 4.6 87 0.9 NW 7 11 4 6 1011.0 1011.2 20.4
27/08:30am 6.4 4.4 4.4 87 0.9 WNW 4 9 2 5 1010.7 1010.9 20.4
27/08:00am 6.4 4.1 4.6 88 0.8 WNW 6 20 3 11 1010.3 1010.6 20.4
27/07:30am 5.5 3.6 4.8 95 0.3 WNW 4 7 2 4 1010.1 1010.3 20.4
27/07:00am 4.6 2.2 4.2 97 0.2 WNW 6 11 3 6 1009.8 1010.0 20.4
27/06:30am 3.8 1.6 3.4 97 0.2 WNW 4 7 2 4 1009.5 1009.7 20.4
27/06:00am 3.6 1.3 3.0 96 0.3 WNW 4 7 2 4 1009.1 1009.3 20.4
27/05:30am 4.3 1.8 3.9 97 0.2 WNW 6 11 3 6 1008.9 1009.1 20.4
27/05:00am 4.4 2.3 3.8 96 0.3 W 4 6 2 3 1008.7 1008.9 20.2
27/04:30am 4.5 2.8 3.9 96 0.3 W 2 4 1 2 1008.6 1008.7 20.2
27/04:00am 4.6 2.5 4.0 96 0.3 NW 4 9 2 5 1008.3 1008.5 20.2
27/03:30am 4.7 3.0 4.1 96 0.3 WNW 2 6 1 3 1008.1 1008.3 20.2
27/03:00am 4.6 2.9 4.0 96 0.3 WNW 2 9 1 5 1008.2 1008.4 20.2
27/02:30am 4.5 2.8 3.8 95 0.3 NW 2 7 1 4 1008.3 1008.5 20.2
27/02:00am 4.5 2.4 3.8 95 0.3 WNW 4 9 2 5 1008.6 1008.7 20.0
27/01:30am 4.3 2.5 3.4 94 0.4 W 2 6 1 3 1008.6 1008.7 19.8
27/01:00am 4.5 2.3 3.6 94 0.4 WNW 4 9 2 5 1008.8 1009.0 19.8
27/12:30am 4.3 1.8 3.6 95 0.3 NW 6 9 3 5 1009.0 1009.2 19.8
27/12:00am 4.1 1.5 3.4 95 0.3 NW 6 9 3 5 1009.2 1009.4 19.8
 
Date/Time
EST
Temp
°C
App
Temp
°C
Dew
Point
°C
Rel
Hum
%
Delta-T
°C
Wind Press
QNH
hPa
Press
MSL
hPa
Rain since
9am
mm
Dir  Spd
km/h
Gust
km/h
Spd
kts
Gust
kts
26/11:30pm 4.3 2.9 3.6 95 0.3 CALM 0 0 0 0 1009.1 1009.3 19.8
26/11:00pm 4.4 2.3 3.7 95 0.3 NNW 4 9 2 5 1009.5 1009.7 19.4
26/10:30pm 4.7 2.2 4.0 95 0.3 W 6 13 3 7 1010.1 1010.3 18.0
26/10:00pm 5.1 2.7 4.2 94 0.4 WSW 6 17 3 9 1010.4 1010.7 14.4
26/09:30pm 6.2 3.7 4.8 91 0.6 WSW 7 17 4 9 1010.1 1010.3 8.6
26/09:00pm 7.5 5.8 6.0 90 0.7 N 4 9 2 5 1009.1 1009.3 4.4
26/08:30pm 6.9 5.6 6.0 94 0.4 NE 2 6 1 3 1009.3 1009.5 4.4
26/08:00pm 7.1 5.4 6.0 93 0.5 NW 4 6 2 3 1009.8 1010.0 4.0
26/07:30pm 7.2 5.8 5.7 90 0.7 NNW 2 6 1 3 1009.8 1010.0 2.8
26/07:00pm 8.2 6.0 5.1 81 1.4 NNW 6 13 3 7 1009.9 1010.1 0.8
26/06:30pm 9.5 7.0 3.9 68 2.5 NNE 6 9 3 5 1009.3 1009.5 0.0
26/06:00pm 9.8 7.6 3.5 65 2.8 NNE 4 15 2 8 1009.2 1009.4 0.0
26/05:30pm 10.1 7.9 3.6 64 2.9 NNE 4 9 2 5 1009.1 1009.3 0.0
26/05:00pm 10.8 8.6 3.6 61 3.3 N 4 13 2 7 1009.0 1009.2 0.0
26/04:30pm 11.1 9.0 3.9 61 3.3 NNW 4 7 2 4 1009.1 1009.3 0.0
26/04:00pm 11.3 9.2 4.1 61 3.3 N 4 9 2 5 1009.1 1009.3 0.0
26/03:30pm 10.4 8.0 4.5 67 2.7 NNW 6 15 3 8 1009.4 1009.6 0.0
26/03:00pm 11.2 8.8 4.4 63 3.2 N 6 15 3 8 1009.5 1009.7 0.0
26/02:30pm 10.8 8.5 4.9 67 2.8 N 6 9 3 5 1009.7 1009.9 0.0
26/02:00pm 10.8 8.3 3.8 62 3.2 NNW 6 15 3 8 1009.9 1010.1 0.0
26/01:30pm 11.9 9.3 3.2 55 3.9 N 6 11 3 6 1010.0 1010.2 0.0
26/01:00pm 11.0 9.1 4.7 65 2.9 N 4 7 2 4 1010.4 1010.7 0.0
26/12:30pm 11.2 8.5 3.7 60 3.4 NNW 7 17 4 9 1011.0 1011.2 0.0
26/12:00pm 12.2 9.6 4.2 58 3.7 N 7 17 4 9 1011.1 1011.3 0.0
26/11:30am 10.5 7.7 3.1 60 3.3 NW 7 19 4 10 1011.4 1011.6 0.0
26/11:00am 9.4 6.7 3.8 68 2.5 NW 7 17 4 9 1011.8 1012.0 0.0
26/10:30am 9.7 7.2 3.9 67 2.6 NNW 6 11 3 6 1012.1 1012.4 0.0
26/10:00am 9.7 7.3 4.3 69 2.5 NNW 6 15 3 8 1012.2 1012.5 0.0
26/09:30am 9.7 7.3 4.1 68 2.5 N 6 13 3 7 1012.4 1012.7 0.0
26/09:00am 9.6 7.3 4.8 72 2.2 NNW 6 15 3 8 1012.4 1012.7 0.2
26/08:30am 8.6 6.7 4.8 77 1.7 N 4 9 2 5 1012.5 1012.8 0.2
26/08:00am 6.7 4.8 4.9 88 0.8 WNW 4 9 2 5 1012.7 1012.9 0.2
26/07:30am 6.6 5.1 5.1 90 0.7 NNW 2 6 1 3 1012.7 1012.9 0.2
26/07:00am 5.8 4.6 4.4 91 0.6 CALM 0 0 0 0 1012.8 1013.0 0.2
26/06:30am 5.6 3.9 3.8 88 0.8 NW 2 6 1 3 1012.7 1012.9 0.2
26/06:00am 5.8 4.3 3.1 83 1.2 CALM 0 4 0 2 1012.4 1012.7 0.0
26/05:30am 6.1 3.8 2.6 78 1.5 NW 4 9 2 5 1012.4 1012.7 0.0
26/05:00am 6.3 4.4 2.6 77 1.6 NW 2 4 1 2 1012.2 1012.5 0.0
26/04:30am 6.2 4.2 2.3 76 1.6 NW 2 4 1 2 1012.1 1012.4 0.0
26/04:00am 5.5 4.0 2.8 83 1.1 CALM 0 0 0 0 1012.0 1012.3 0.0
26/03:30am 5.3 3.7 2.7 83 1.1 CALM 0 2 0 1 1012.0 1012.3 0.0
26/03:00am 4.7 2.4 3.0 89 0.7 NE 4 6 2 3 1012.1 1012.4 0.0
26/02:30am 4.5 3.0 2.8 89 0.7 CALM 0 4 0 2 1012.5 1012.8 0.0
26/02:00am 4.8 2.6 3.1 89 0.7 ENE 4 7 2 4 1012.7 1012.9 0.0
26/01:30am 4.7 3.2 2.9 88 0.8 CALM 0 0 0 0 1012.9 1013.1 0.0
26/01:00am 4.8 3.2 2.2 83 1.1 CALM 0 0 0 0 1013.2 1013.4 0.0
26/12:30am 5.0 3.4 2.5 84 1.0 CALM 0 2 0 1 1013.3 1013.5 0.0
26/12:00am 5.0 3.4 2.4 83 1.1 CALM 0 0 0 0 1013.3 1013.5 0.0
 
Date/Time
EST
Temp
°C
App
Temp
°C
Dew
Point
°C
Rel
Hum
%
Delta-T
°C
Wind Press
QNH
hPa
Press
MSL
hPa
Rain since
9am
mm
Dir  Spd
km/h
Gust
km/h
Spd
kts
Gust
kts
25/11:30pm 5.2 3.6 2.6 83 1.1 CALM 0 0 0 0 1013.6 1013.9 0.0
25/11:00pm 5.7 4.1 2.5 80 1.4 CALM 0 2 0 1 1013.7 1014.0 0.0
25/10:30pm 5.7 4.2 3.2 84 1.1 CALM 0 0 0 0 1014.1 1014.4 0.0
25/10:00pm 5.5 4.0 3.2 85 1.0 CALM 0 2 0 1 1014.1 1014.4 0.0
25/09:30pm 5.6 4.1 3.1 84 1.1 CALM 0 0 0 0 1014.0 1014.3 0.0
25/09:00pm 5.7 4.1 2.7 81 1.3 CALM 0 2 0 1 1013.9 1014.2 0.0
25/08:30pm 5.9 4.4 2.9 81 1.3 CALM 0 4 0 2 1013.8 1014.1 0.0
25/08:00pm 5.7 3.9 3.2 84 1.1 SE 2 4 1 2 1013.5 1013.7 0.0
25/07:30pm 5.9 4.5 3.6 85 1.0 CALM 0 0 0 0 1013.1 1013.3 0.0
25/07:00pm 5.8 4.0 3.3 84 1.1 SW 2 4 1 2 1012.4 1012.7 0.0
25/06:30pm 6.8 5.0 3.6 80 1.4 SSW 2 4 1 2 1012.1 1012.4 0.0
25/06:00pm 7.5 5.7 3.4 75 1.8 SW 2 7 1 4 1011.8 1012.0 0.0
25/05:30pm 8.0 5.7 2.9 70 2.2 SW 4 9 2 5 1011.7 1011.9 0.0
25/05:00pm 8.8 6.1 2.6 65 2.7 SW 6 11 3 6 1011.5 1011.7 0.0
25/04:30pm 9.0 6.2 2.3 63 2.9 WSW 6 13 3 7 1011.3 1011.5 0.0
25/04:00pm 9.6 6.8 2.9 63 3.0 SW 7 17 4 9 1011.3 1011.5 0.0
25/03:30pm 9.4 6.8 3.2 65 2.8 S 6 11 3 6 1011.3 1011.5 0.0

Other Formats:

Comma delimited format used in spreadsheet applications
http://www.bom.gov.au/fwo/IDV60801/IDV60801.94872.axf

JavaScript Object Notation format (JSON) in row-major order
http://www.bom.gov.au/fwo/IDV60801/IDV60801.94872.json